sensor_id;sensor_type;location;lat;lon;timestamp;pressure;altitude;pressure_sealevel;temperature;humidity
84445;BME280;74683;48.402;10.596;2023-12-29T00:00:21;96642.81;;;5.37;77.33
84445;BME280;74683;48.402;10.596;2023-12-29T00:02:47;96648.53;;;5.27;78.14
84445;BME280;74683;48.402;10.596;2023-12-29T00:05:14;96647.97;;;5.16;77.64
84445;BME280;74683;48.402;10.596;2023-12-29T00:07:41;96649.50;;;5.09;78.09
84445;BME280;74683;48.402;10.596;2023-12-29T00:10:08;96644.63;;;4.97;78.17
84445;BME280;74683;48.402;10.596;2023-12-29T00:12:36;96656.25;;;4.89;78.35
84445;BME280;74683;48.402;10.596;2023-12-29T00:15:03;96653.66;;;4.84;78.38
84445;BME280;74683;48.402;10.596;2023-12-29T00:17:29;96644.63;;;4.75;78.75
84445;BME280;74683;48.402;10.596;2023-12-29T00:19:56;96638.47;;;4.69;78.82
84445;BME280;74683;48.402;10.596;2023-12-29T00:22:23;96629.63;;;4.64;79.31
84445;BME280;74683;48.402;10.596;2023-12-29T00:24:51;96631.97;;;4.56;79.35
84445;BME280;74683;48.402;10.596;2023-12-29T00:27:18;96629.97;;;4.48;80.08
84445;BME280;74683;48.402;10.596;2023-12-29T00:29:45;96628.97;;;4.44;80.12
84445;BME280;74683;48.402;10.596;2023-12-29T00:32:11;96624.75;;;4.38;79.87
84445;BME280;74683;48.402;10.596;2023-12-29T00:34:38;96615.06;;;4.32;79.87
84445;BME280;74683;48.402;10.596;2023-12-29T00:37:05;96614.59;;;4.30;80.62
84445;BME280;74683;48.402;10.596;2023-12-29T00:39:32;96625.28;;;4.26;81.12
84445;BME280;74683;48.402;10.596;2023-12-29T00:42:05;96618.53;;;4.24;81.08
84445;BME280;74683;48.402;10.596;2023-12-29T00:44:33;96613.69;;;4.21;81.04
84445;BME280;74683;48.402;10.596;2023-12-29T00:47:00;96627.09;;;4.17;81.49
84445;BME280;74683;48.402;10.596;2023-12-29T00:49:27;96620.97;;;4.12;81.88
84445;BME280;74683;48.402;10.596;2023-12-29T00:51:54;96620.16;;;4.11;82.06
84445;BME280;74683;48.402;10.596;2023-12-29T00:54:20;96614.22;;;4.09;82.94
84445;BME280;74683;48.402;10.596;2023-12-29T00:56:51;96609.50;;;4.15;83.39
84445;BME280;74683;48.402;10.596;2023-12-29T00:59:19;96601.59;;;4.27;83.46
84445;BME280;74683;48.402;10.596;2023-12-29T01:01:46;96610.09;;;4.48;83.52
84445;BME280;74683;48.402;10.596;2023-12-29T01:04:13;96604.75;;;4.56;83.42
84445;BME280;74683;48.402;10.596;2023-12-29T01:06:40;96603.63;;;4.80;82.82
84445;BME280;74683;48.402;10.596;2023-12-29T01:09:07;96594.91;;;4.92;82.10
84445;BME280;74683;48.402;10.596;2023-12-29T01:11:37;96600.06;;;4.93;82.08
84445;BME280;74683;48.402;10.596;2023-12-29T01:14:04;96591.13;;;5.01;82.23
84445;BME280;74683;48.402;10.596;2023-12-29T01:16:32;96594.03;;;5.05;81.75
84445;BME280;74683;48.402;10.596;2023-12-29T01:18:59;96587.16;;;5.07;81.44
84445;BME280;74683;48.402;10.596;2023-12-29T01:21:26;96589.88;;;5.07;81.11
84445;BME280;74683;48.402;10.596;2023-12-29T01:23:52;96594.22;;;5.08;81.42
84445;BME280;74683;48.402;10.596;2023-12-29T01:26:19;96602.88;;;5.10;80.81
84445;BME280;74683;48.402;10.596;2023-12-29T01:28:45;96609.75;;;5.08;80.79
84445;BME280;74683;48.402;10.596;2023-12-29T01:31:12;96607.66;;;5.05;81.08
84445;BME280;74683;48.402;10.596;2023-12-29T01:33:40;96598.06;;;5.07;80.49
84445;BME280;74683;48.402;10.596;2023-12-29T01:36:07;96594.03;;;5.05;81.25
84445;BME280;74683;48.402;10.596;2023-12-29T01:38:43;96596.47;;;5.06;81.13
84445;BME280;74683;48.402;10.596;2023-12-29T01:41:09;96597.41;;;5.02;80.81
84445;BME280;74683;48.402;10.596;2023-12-29T01:43:36;96591.00;;;5.06;80.99
84445;BME280;74683;48.402;10.596;2023-12-29T01:46:03;96592.59;;;5.07;80.83
84445;BME280;74683;48.402;10.596;2023-12-29T01:48:30;96590.38;;;5.09;80.56
84445;BME280;74683;48.402;10.596;2023-12-29T01:50:57;96586.69;;;5.05;81.13
84445;BME280;74683;48.402;10.596;2023-12-29T01:53:24;96568.41;;;5.06;80.50
84445;BME280;74683;48.402;10.596;2023-12-29T01:56:05;96574.53;;;5.11;80.20
84445;BME280;74683;48.402;10.596;2023-12-29T01:58:33;96576.94;;;5.13;80.20
84445;BME280;74683;48.402;10.596;2023-12-29T02:01:01;96581.06;;;5.10;79.83
84445;BME280;74683;48.402;10.596;2023-12-29T02:03:29;96581.06;;;5.10;80.46
84445;BME280;74683;48.402;10.596;2023-12-29T02:05:57;96585.44;;;5.11;80.66
84445;BME280;74683;48.402;10.596;2023-12-29T02:08:24;96585.94;;;5.13;80.17
84445;BME280;74683;48.402;10.596;2023-12-29T02:10:51;96579.69;;;5.13;80.52
84445;BME280;74683;48.402;10.596;2023-12-29T02:13:18;96579.34;;;5.14;80.67
84445;BME280;74683;48.402;10.596;2023-12-29T02:15:45;96583.19;;;5.13;80.10
84445;BME280;74683;48.402;10.596;2023-12-29T02:18:14;96578.06;;;5.12;80.50
84445;BME280;74683;48.402;10.596;2023-12-29T02:20:42;96573.41;;;5.12;80.57
84445;BME280;74683;48.402;10.596;2023-12-29T02:23:08;96581.44;;;5.17;80.33
84445;BME280;74683;48.402;10.596;2023-12-29T02:25:36;96575.69;;;5.19;80.24
84445;BME280;74683;48.402;10.596;2023-12-29T02:28:12;96579.91;;;5.25;80.06
84445;BME280;74683;48.402;10.596;2023-12-29T02:30:45;96567.28;;;5.38;78.65
84445;BME280;74683;48.402;10.596;2023-12-29T02:33:19;96575.66;;;5.50;78.07
84445;BME280;74683;48.402;10.596;2023-12-29T02:35:48;96571.06;;;5.59;77.76
84445;BME280;74683;48.402;10.596;2023-12-29T02:38:15;96574.94;;;5.67;77.51
84445;BME280;74683;48.402;10.596;2023-12-29T02:40:42;96570.16;;;5.72;76.95
84445;BME280;74683;48.402;10.596;2023-12-29T02:43:09;96568.59;;;5.80;77.23
84445;BME280;74683;48.402;10.596;2023-12-29T02:45:36;96559.28;;;5.81;76.74
84445;BME280;74683;48.402;10.596;2023-12-29T02:48:03;96549.63;;;5.75;76.72
84445;BME280;74683;48.402;10.596;2023-12-29T02:50:30;96549.94;;;5.73;76.94
84445;BME280;74683;48.402;10.596;2023-12-29T02:52:57;96546.53;;;5.68;77.11
84445;BME280;74683;48.402;10.596;2023-12-29T02:55:23;96545.25;;;5.65;76.28
84445;BME280;74683;48.402;10.596;2023-12-29T02:57:50;96543.19;;;5.62;76.76
84445;BME280;74683;48.402;10.596;2023-12-29T03:00:17;96550.03;;;5.60;76.81
84445;BME280;74683;48.402;10.596;2023-12-29T03:02:44;96536.09;;;5.53;77.61
84445;BME280;74683;48.402;10.596;2023-12-29T03:05:11;96553.38;;;5.48;76.82
84445;BME280;74683;48.402;10.596;2023-12-29T03:07:37;96546.16;;;5.43;77.68
84445;BME280;74683;48.402;10.596;2023-12-29T03:10:06;96539.91;;;5.43;77.59
84445;BME280;74683;48.402;10.596;2023-12-29T03:12:34;96536.06;;;5.44;77.51
84445;BME280;74683;48.402;10.596;2023-12-29T03:15:00;96534.44;;;5.43;77.09
84445;BME280;74683;48.402;10.596;2023-12-29T03:17:27;96528.34;;;5.46;77.27
84445;BME280;74683;48.402;10.596;2023-12-29T03:19:54;96544.88;;;5.50;77.60
84445;BME280;74683;48.402;10.596;2023-12-29T03:22:20;96543.47;;;5.52;76.93
84445;BME280;74683;48.402;10.596;2023-12-29T03:24:48;96542.50;;;5.57;77.36
84445;BME280;74683;48.402;10.596;2023-12-29T03:27:14;96538.19;;;5.56;77.01
84445;BME280;74683;48.402;10.596;2023-12-29T03:29:41;96530.78;;;5.56;76.71
84445;BME280;74683;48.402;10.596;2023-12-29T03:32:08;96535.13;;;5.57;76.81
84445;BME280;74683;48.402;10.596;2023-12-29T03:34:35;96530.78;;;5.56;76.78
84445;BME280;74683;48.402;10.596;2023-12-29T03:37:02;96537.06;;;5.57;76.68
84445;BME280;74683;48.402;10.596;2023-12-29T03:39:29;96528.88;;;5.57;76.47
84445;BME280;74683;48.402;10.596;2023-12-29T03:41:56;96524.53;;;5.56;76.38
84445;BME280;74683;48.402;10.596;2023-12-29T03:44:23;96524.06;;;5.54;76.83
84445;BME280;74683;48.402;10.596;2023-12-29T03:46:50;96513.47;;;5.52;76.83
84445;BME280;74683;48.402;10.596;2023-12-29T03:49:18;96520.34;;;5.50;77.10
84445;BME280;74683;48.402;10.596;2023-12-29T03:51:46;96507.34;;;5.46;77.55
84445;BME280;74683;48.402;10.596;2023-12-29T03:54:13;96501.91;;;5.46;76.93
84445;BME280;74683;48.402;10.596;2023-12-29T03:56:39;96507.34;;;5.46;76.46
84445;BME280;74683;48.402;10.596;2023-12-29T03:59:06;96500.13;;;5.42;77.49
84445;BME280;74683;48.402;10.596;2023-12-29T04:01:33;96498.53;;;5.41;77.40
84445;BME280;74683;48.402;10.596;2023-12-29T04:04:00;96501.84;;;5.38;77.28
84445;BME280;74683;48.402;10.596;2023-12-29T04:06:27;96502.97;;;5.37;77.24
84445;BME280;74683;48.402;10.596;2023-12-29T04:08:53;96503.13;;;5.32;76.62
84445;BME280;74683;48.402;10.596;2023-12-29T04:11:20;96500.53;;;5.27;77.46
84445;BME280;74683;48.402;10.596;2023-12-29T04:13:47;96504.50;;;5.21;77.08
84445;BME280;74683;48.402;10.596;2023-12-29T04:16:13;96497.28;;;5.16;77.84
84445;BME280;74683;48.402;10.596;2023-12-29T04:18:40;96496.94;;;5.09;77.64
84445;BME280;74683;48.402;10.596;2023-12-29T04:21:07;96489.72;;;5.04;77.85
84445;BME280;74683;48.402;10.596;2023-12-29T04:23:35;96495.28;;;4.99;78.08
84445;BME280;74683;48.402;10.596;2023-12-29T04:26:02;96501.00;;;4.89;77.39
84445;BME280;74683;48.402;10.596;2023-12-29T04:28:28;96508.00;;;4.81;78.43
84445;BME280;74683;48.402;10.596;2023-12-29T04:30:55;96512.31;;;4.74;78.37
84445;BME280;74683;48.402;10.596;2023-12-29T04:33:22;96511.94;;;4.67;78.17
84445;BME280;74683;48.402;10.596;2023-12-29T04:35:49;96512.34;;;4.60;78.83
84445;BME280;74683;48.402;10.596;2023-12-29T04:38:15;96508.59;;;4.47;79.19
84445;BME280;74683;48.402;10.596;2023-12-29T04:40:45;96498.31;;;4.44;79.19
84445;BME280;74683;48.402;10.596;2023-12-29T04:43:13;96507.91;;;4.42;79.21
84445;BME280;74683;48.402;10.596;2023-12-29T04:45:40;96508.66;;;4.34;79.37
84445;BME280;74683;48.402;10.596;2023-12-29T04:48:06;96510.06;;;4.31;79.52
84445;BME280;74683;48.402;10.596;2023-12-29T04:50:33;96496.03;;;4.38;79.22
84445;BME280;74683;48.402;10.596;2023-12-29T04:53:00;96494.00;;;4.43;78.99
84445;BME280;74683;48.402;10.596;2023-12-29T04:55:27;96494.34;;;4.50;78.63
84445;BME280;74683;48.402;10.596;2023-12-29T04:57:53;96486.94;;;4.65;78.13
84445;BME280;74683;48.402;10.596;2023-12-29T05:00:20;96503.59;;;4.72;77.54
84445;BME280;74683;48.402;10.596;2023-12-29T05:02:46;96494.25;;;4.86;77.44
84445;BME280;74683;48.402;10.596;2023-12-29T05:05:13;96506.13;;;4.90;77.19
84445;BME280;74683;48.402;10.596;2023-12-29T05:07:40;96510.47;;;4.92;76.74
84445;BME280;74683;48.402;10.596;2023-12-29T05:10:07;96502.44;;;4.86;76.59
84445;BME280;74683;48.402;10.596;2023-12-29T05:12:34;96505.78;;;4.83;77.10
84445;BME280;74683;48.402;10.596;2023-12-29T05:15:01;96500.78;;;4.77;76.75
84445;BME280;74683;48.402;10.596;2023-12-29T05:17:27;96504.72;;;4.71;77.36
84445;BME280;74683;48.402;10.596;2023-12-29T05:19:54;96518.97;;;4.68;77.14
84445;BME280;74683;48.402;10.596;2023-12-29T05:22:21;96518.16;;;4.67;76.98
84445;BME280;74683;48.402;10.596;2023-12-29T05:24:47;96525.53;;;4.67;77.76
84445;BME280;74683;48.402;10.596;2023-12-29T05:27:14;96527.16;;;4.68;77.72
84445;BME280;74683;48.402;10.596;2023-12-29T05:29:41;96535.31;;;4.68;77.20
84445;BME280;74683;48.402;10.596;2023-12-29T05:32:08;96536.13;;;4.68;77.45
84445;BME280;74683;48.402;10.596;2023-12-29T05:34:35;96533.13;;;4.78;77.91
84445;BME280;74683;48.402;10.596;2023-12-29T05:37:02;96531.97;;;4.93;77.67
84445;BME280;74683;48.402;10.596;2023-12-29T05:39:28;96536.72;;;5.18;77.69
84445;BME280;74683;48.402;10.596;2023-12-29T05:41:55;96536.50;;;5.37;76.83
84445;BME280;74683;48.402;10.596;2023-12-29T05:44:22;96543.94;;;5.54;76.21
84445;BME280;74683;48.402;10.596;2023-12-29T05:46:49;96534.38;;;5.74;75.28
84445;BME280;74683;48.402;10.596;2023-12-29T05:49:16;96533.34;;;6.01;74.99
84445;BME280;74683;48.402;10.596;2023-12-29T05:51:44;96538.19;;;6.13;74.50
84445;BME280;74683;48.402;10.596;2023-12-29T05:54:11;96541.53;;;6.18;74.45
84445;BME280;74683;48.402;10.596;2023-12-29T05:56:38;96537.41;;;6.29;73.33
84445;BME280;74683;48.402;10.596;2023-12-29T05:59:04;96529.03;;;6.43;73.05
84445;BME280;74683;48.402;10.596;2023-12-29T06:01:31;96522.78;;;6.43;73.39
84445;BME280;74683;48.402;10.596;2023-12-29T06:03:58;96523.44;;;6.40;73.09
84445;BME280;74683;48.402;10.596;2023-12-29T06:06:24;96515.88;;;6.37;72.88
84445;BME280;74683;48.402;10.596;2023-12-29T06:08:51;96526.31;;;6.35;73.65
84445;BME280;74683;48.402;10.596;2023-12-29T06:11:18;96524.38;;;6.26;73.73
84445;BME280;74683;48.402;10.596;2023-12-29T06:13:45;96510.25;;;6.24;73.91
84445;BME280;74683;48.402;10.596;2023-12-29T06:16:17;96508.50;;;6.20;73.94
84445;BME280;74683;48.402;10.596;2023-12-29T06:18:45;96509.78;;;6.22;73.54
84445;BME280;74683;48.402;10.596;2023-12-29T06:21:12;96511.84;;;6.17;74.53
84445;BME280;74683;48.402;10.596;2023-12-29T06:23:39;96513.78;;;6.16;74.33
84445;BME280;74683;48.402;10.596;2023-12-29T06:26:05;96520.84;;;6.17;74.22
84445;BME280;74683;48.402;10.596;2023-12-29T06:28:39;96523.75;;;6.21;73.77
84445;BME280;74683;48.402;10.596;2023-12-29T06:31:06;96523.44;;;6.31;73.93
84445;BME280;74683;48.402;10.596;2023-12-29T06:33:33;96519.91;;;6.30;73.92
84445;BME280;74683;48.402;10.596;2023-12-29T06:36:00;96516.03;;;6.31;73.49
84445;BME280;74683;48.402;10.596;2023-12-29T06:38:26;96525.84;;;6.32;74.36
84445;BME280;74683;48.402;10.596;2023-12-29T06:40:53;96522.63;;;6.30;73.90
84445;BME280;74683;48.402;10.596;2023-12-29T06:43:20;96529.22;;;6.29;74.35
84445;BME280;74683;48.402;10.596;2023-12-29T06:45:46;96527.44;;;6.25;74.02
84445;BME280;74683;48.402;10.596;2023-12-29T06:48:13;96528.41;;;6.20;74.08
84445;BME280;74683;48.402;10.596;2023-12-29T06:50:40;96538.00;;;6.18;74.22
84445;BME280;74683;48.402;10.596;2023-12-29T06:53:06;96537.22;;;6.17;74.43
84445;BME280;74683;48.402;10.596;2023-12-29T06:55:33;96533.19;;;6.15;74.39
84445;BME280;74683;48.402;10.596;2023-12-29T06:57:59;96528.53;;;6.15;75.46
84445;BME280;74683;48.402;10.596;2023-12-29T07:00:26;96530.16;;;6.16;75.31
84445;BME280;74683;48.402;10.596;2023-12-29T07:02:53;96534.03;;;6.24;75.26
84445;BME280;74683;48.402;10.596;2023-12-29T07:05:20;96541.72;;;6.22;74.69
84445;BME280;74683;48.402;10.596;2023-12-29T07:07:46;96543.16;;;6.19;75.74
84445;BME280;74683;48.402;10.596;2023-12-29T07:10:13;96541.25;;;6.20;75.50
84445;BME280;74683;48.402;10.596;2023-12-29T07:12:40;96546.22;;;6.18;75.86
84445;BME280;74683;48.402;10.596;2023-12-29T07:15:08;96549.56;;;6.15;75.69
84445;BME280;74683;48.402;10.596;2023-12-29T07:17:35;96554.56;;;6.13;76.13
84445;BME280;74683;48.402;10.596;2023-12-29T07:20:02;96556.78;;;6.19;76.13
84445;BME280;74683;48.402;10.596;2023-12-29T07:22:29;96550.88;;;6.17;76.09
84445;BME280;74683;48.402;10.596;2023-12-29T07:24:57;96548.31;;;6.21;76.53
84445;BME280;74683;48.402;10.596;2023-12-29T07:27:26;96561.16;;;6.29;76.53
84445;BME280;74683;48.402;10.596;2023-12-29T07:30:09;96558.13;;;6.39;75.98
84445;BME280;74683;48.402;10.596;2023-12-29T07:32:41;96555.69;;;6.46;76.82
84445;BME280;74683;48.402;10.596;2023-12-29T07:35:12;96552.03;;;6.51;76.59
84445;BME280;74683;48.402;10.596;2023-12-29T07:37:49;96549.91;;;6.48;76.48
84445;BME280;74683;48.402;10.596;2023-12-29T07:40:15;96549.44;;;6.46;76.26
84445;BME280;74683;48.402;10.596;2023-12-29T07:42:42;96563.25;;;6.41;76.38
84445;BME280;74683;48.402;10.596;2023-12-29T07:45:14;96560.69;;;6.36;76.96
84445;BME280;74683;48.402;10.596;2023-12-29T07:47:59;96567.91;;;6.31;77.64
84445;BME280;74683;48.402;10.596;2023-12-29T07:50:36;96562.44;;;6.23;78.12
84445;BME280;74683;48.402;10.596;2023-12-29T07:53:06;96561.31;;;6.24;77.73
84445;BME280;74683;48.402;10.596;2023-12-29T07:55:37;96558.44;;;6.20;77.80
84445;BME280;74683;48.402;10.596;2023-12-29T07:58:04;96559.38;;;6.16;78.72
84445;BME280;74683;48.402;10.596;2023-12-29T08:00:32;96551.34;;;6.19;79.14
84445;BME280;74683;48.402;10.596;2023-12-29T08:02:59;96551.84;;;6.21;79.22
84445;BME280;74683;48.402;10.596;2023-12-29T08:05:26;96567.09;;;6.22;78.18
84445;BME280;74683;48.402;10.596;2023-12-29T08:07:53;96553.59;;;6.26;79.02
84445;BME280;74683;48.402;10.596;2023-12-29T08:10:20;96555.88;;;6.32;78.83
84445;BME280;74683;48.402;10.596;2023-12-29T08:12:47;96557.81;;;6.41;78.40
84445;BME280;74683;48.402;10.596;2023-12-29T08:15:14;96559.22;;;6.47;79.37
84445;BME280;74683;48.402;10.596;2023-12-29T08:17:41;96557.50;;;6.51;79.18
84445;BME280;74683;48.402;10.596;2023-12-29T08:20:08;96569.84;;;6.57;78.41
84445;BME280;74683;48.402;10.596;2023-12-29T08:22:35;96568.91;;;6.61;78.31
84445;BME280;74683;48.402;10.596;2023-12-29T08:25:03;96566.63;;;6.72;78.22
84445;BME280;74683;48.402;10.596;2023-12-29T08:27:30;96565.66;;;6.77;78.24
84445;BME280;74683;48.402;10.596;2023-12-29T08:29:56;96563.56;;;6.82;77.31
84445;BME280;74683;48.402;10.596;2023-12-29T08:32:23;96567.75;;;6.88;77.88
84445;BME280;74683;48.402;10.596;2023-12-29T08:34:50;96563.38;;;6.96;77.37
84445;BME280;74683;48.402;10.596;2023-12-29T08:37:16;96553.56;;;7.12;76.81
84445;BME280;74683;48.402;10.596;2023-12-29T08:39:47;96558.66;;;7.31;77.10
84445;BME280;74683;48.402;10.596;2023-12-29T08:42:15;96548.94;;;7.51;76.24
84445;BME280;74683;48.402;10.596;2023-12-29T08:44:42;96557.22;;;7.72;75.16
84445;BME280;74683;48.402;10.596;2023-12-29T08:47:09;96555.78;;;7.95;75.52
84445;BME280;74683;48.402;10.596;2023-12-29T08:49:36;96550.03;;;8.18;nan
84445;BME280;74683;48.402;10.596;2023-12-29T08:52:04;96550.69;;;8.44;73.22
84445;BME280;74683;48.402;10.596;2023-12-29T08:54:30;96562.72;;;8.73;71.95
84445;BME280;74683;48.402;10.596;2023-12-29T08:56:57;96548.00;;;8.77;71.12
84445;BME280;74683;48.402;10.596;2023-12-29T08:59:24;96557.69;;;8.75;71.31
84445;BME280;74683;48.402;10.596;2023-12-29T09:01:50;96547.88;;;8.74;71.29
84445;BME280;74683;48.402;10.596;2023-12-29T09:04:17;96559.97;;;8.73;71.78
84445;BME280;74683;48.402;10.596;2023-12-29T09:06:43;96559.63;;;8.74;71.70
84445;BME280;74683;48.402;10.596;2023-12-29T09:09:10;96558.38;;;8.72;71.79
84445;BME280;74683;48.402;10.596;2023-12-29T09:11:39;96559.03;;;8.69;71.90
84445;BME280;74683;48.402;10.596;2023-12-29T09:14:06;96573.88;;;8.68;72.20
84445;BME280;74683;48.402;10.596;2023-12-29T09:16:35;96569.84;;;8.65;72.42
84445;BME280;74683;48.402;10.596;2023-12-29T09:19:02;96567.94;;;8.66;71.53
84445;BME280;74683;48.402;10.596;2023-12-29T09:21:43;96573.88;;;8.68;71.33
84445;BME280;74683;48.402;10.596;2023-12-29T09:24:10;96558.69;;;8.70;71.41
84445;BME280;74683;48.402;10.596;2023-12-29T09:26:36;96554.75;;;8.80;72.13
84445;BME280;74683;48.402;10.596;2023-12-29T09:29:03;96552.75;;;8.89;70.79
84445;BME280;74683;48.402;10.596;2023-12-29T09:31:29;96560.44;;;8.96;70.53
84445;BME280;74683;48.402;10.596;2023-12-29T09:33:56;96567.16;;;8.98;70.51
84445;BME280;74683;48.402;10.596;2023-12-29T09:36:23;96567.63;;;9.00;70.92
84445;BME280;74683;48.402;10.596;2023-12-29T09:38:51;96563.75;;;9.01;69.93
84445;BME280;74683;48.402;10.596;2023-12-29T09:41:18;96570.41;;;9.12;70.37
84445;BME280;74683;48.402;10.596;2023-12-29T09:43:48;96571.28;;;9.25;70.22
84445;BME280;74683;48.402;10.596;2023-12-29T09:46:21;96568.84;;;9.24;69.94
84445;BME280;74683;48.402;10.596;2023-12-29T09:48:51;96576.16;;;9.19;70.20
84445;BME280;74683;48.402;10.596;2023-12-29T09:51:19;96571.81;;;9.18;70.53
84445;BME280;74683;48.402;10.596;2023-12-29T09:53:50;96570.41;;;9.12;70.31
84445;BME280;74683;48.402;10.596;2023-12-29T09:56:19;96570.75;;;9.11;70.48
84445;BME280;74683;48.402;10.596;2023-12-29T09:58:50;96569.78;;;9.28;70.74
84445;BME280;74683;48.402;10.596;2023-12-29T10:01:18;96576.94;;;9.20;70.71
84445;BME280;74683;48.402;10.596;2023-12-29T10:03:48;96580.13;;;9.10;71.46
84445;BME280;74683;48.402;10.596;2023-12-29T10:06:23;96577.03;;;9.11;71.54
84445;BME280;74683;48.402;10.596;2023-12-29T10:08:51;96572.00;;;9.13;71.03
84445;BME280;74683;48.402;10.596;2023-12-29T10:11:21;96566.44;;;9.22;70.78
84445;BME280;74683;48.402;10.596;2023-12-29T10:13:50;96578.69;;;9.25;71.06
84445;BME280;74683;48.402;10.596;2023-12-29T10:19:10;96572.28;;;9.20;71.45
84445;BME280;74683;48.402;10.596;2023-12-29T10:21:59;96573.06;;;9.21;71.67
84445;BME280;74683;48.402;10.596;2023-12-29T10:24:30;96561.28;;;9.20;71.06
84445;BME280;74683;48.402;10.596;2023-12-29T10:26:57;96554.22;;;9.19;71.29
84445;BME280;74683;48.402;10.596;2023-12-29T10:29:26;96551.59;;;9.23;71.06
84445;BME280;74683;48.402;10.596;2023-12-29T10:31:53;96560.31;;;9.25;71.21
84445;BME280;74683;48.402;10.596;2023-12-29T10:34:21;96557.22;;;9.27;71.90
84445;BME280;74683;48.402;10.596;2023-12-29T10:36:56;96550.59;;;9.28;71.97
84445;BME280;74683;48.402;10.596;2023-12-29T10:39:24;96556.06;;;9.28;71.74
84445;BME280;74683;48.402;10.596;2023-12-29T10:42:05;96547.59;;;9.33;71.39
84445;BME280;74683;48.402;10.596;2023-12-29T10:44:33;96540.31;;;9.37;71.33
84445;BME280;74683;48.402;10.596;2023-12-29T10:47:08;96540.66;;;9.35;71.62
84445;BME280;74683;48.402;10.596;2023-12-29T10:49:35;96539.06;;;9.34;72.07
84445;BME280;74683;48.402;10.596;2023-12-29T10:52:12;96539.59;;;9.28;71.53
84445;BME280;74683;48.402;10.596;2023-12-29T10:54:40;96537.56;;;9.25;72.04
84445;BME280;74683;48.402;10.596;2023-12-29T10:57:10;96539.47;;;9.24;72.19
84445;BME280;74683;48.402;10.596;2023-12-29T10:59:37;96537.75;;;9.19;71.75
84445;BME280;74683;48.402;10.596;2023-12-29T11:02:04;96523.59;;;9.17;71.78
84445;BME280;74683;48.402;10.596;2023-12-29T11:04:32;96526.31;;;9.17;71.84
84445;BME280;74683;48.402;10.596;2023-12-29T11:06:59;96522.91;;;9.20;72.33
84445;BME280;74683;48.402;10.596;2023-12-29T11:09:30;96519.00;;;9.22;72.13
84445;BME280;74683;48.402;10.596;2023-12-29T11:12:01;96507.84;;;9.27;71.63
84445;BME280;74683;48.402;10.596;2023-12-29T11:14:28;96505.53;;;9.29;71.62
84445;BME280;74683;48.402;10.596;2023-12-29T11:16:57;96500.41;;;9.39;71.12
84445;BME280;74683;48.402;10.596;2023-12-29T11:19:25;96498.97;;;9.54;71.54
84445;BME280;74683;48.402;10.596;2023-12-29T11:21:54;96494.63;;;9.65;70.89
84445;BME280;74683;48.402;10.596;2023-12-29T11:24:22;96497.34;;;9.77;70.66
84445;BME280;74683;48.402;10.596;2023-12-29T11:27:01;96487.88;;;9.75;70.07
84445;BME280;74683;48.402;10.596;2023-12-29T11:29:30;96482.47;;;9.78;70.00
84445;BME280;74683;48.402;10.596;2023-12-29T11:31:57;96485.56;;;9.89;70.04
84445;BME280;74683;48.402;10.596;2023-12-29T11:34:35;96487.59;;;9.92;70.23
84445;BME280;74683;48.402;10.596;2023-12-29T11:38:18;96487.16;;;9.90;70.19
84445;BME280;74683;48.402;10.596;2023-12-29T11:40:25;96492.88;;;9.97;69.43
84445;BME280;74683;48.402;10.596;2023-12-29T11:42:57;96484.53;;;9.94;69.10
84445;BME280;74683;48.402;10.596;2023-12-29T11:45:33;96485.19;;;9.91;69.87
84445;BME280;74683;48.402;10.596;2023-12-29T11:48:03;96494.81;;;9.97;69.62
84445;BME280;74683;48.402;10.596;2023-12-29T11:50:35;96488.63;;;10.00;69.78
84445;BME280;74683;48.402;10.596;2023-12-29T11:53:03;96491.41;;;9.88;69.72
84445;BME280;74683;48.402;10.596;2023-12-29T11:55:34;96477.91;;;9.95;69.39
84445;BME280;74683;48.402;10.596;2023-12-29T12:00:48;96475.72;;;9.88;70.05
84445;BME280;74683;48.402;10.596;2023-12-29T12:03:17;96475.94;;;9.83;70.47
84445;BME280;74683;48.402;10.596;2023-12-29T12:05:46;96472.41;;;9.70;70.35
84445;BME280;74683;48.402;10.596;2023-12-29T12:10:56;96462.81;;;9.64;70.82
84445;BME280;74683;48.402;10.596;2023-12-29T12:13:42;96454.09;;;9.62;70.84
84445;BME280;74683;48.402;10.596;2023-12-29T12:16:11;96446.56;;;9.59;71.28
84445;BME280;74683;48.402;10.596;2023-12-29T12:18:57;96454.34;;;9.57;71.57
84445;BME280;74683;48.402;10.596;2023-12-29T12:21:25;96455.03;;;9.54;71.74
84445;BME280;74683;48.402;10.596;2023-12-29T12:23:53;96456.84;;;9.50;72.09
84445;BME280;74683;48.402;10.596;2023-12-29T12:26:22;96460.16;;;9.43;71.37
84445;BME280;74683;48.402;10.596;2023-12-29T12:28:53;96455.50;;;9.44;71.96
84445;BME280;74683;48.402;10.596;2023-12-29T12:31:20;96450.34;;;9.42;72.02
84445;BME280;74683;48.402;10.596;2023-12-29T12:33:56;96458.56;;;9.42;71.95
84445;BME280;74683;48.402;10.596;2023-12-29T12:36:23;96443.38;;;9.45;71.57
84445;BME280;74683;48.402;10.596;2023-12-29T12:38:51;96439.59;;;9.49;71.07
84445;BME280;74683;48.402;10.596;2023-12-29T12:41:19;96440.97;;;9.56;71.68
84445;BME280;74683;48.402;10.596;2023-12-29T12:43:52;96437.53;;;9.59;71.45
84445;BME280;74683;48.402;10.596;2023-12-29T12:46:22;96448.88;;;9.57;71.46
84445;BME280;74683;48.402;10.596;2023-12-29T12:48:51;96449.31;;;9.59;71.23
84445;BME280;74683;48.402;10.596;2023-12-29T12:51:19;96444.28;;;9.61;71.41
84445;BME280;74683;48.402;10.596;2023-12-29T12:53:46;96445.88;;;9.62;71.57
84445;BME280;74683;48.402;10.596;2023-12-29T12:56:14;96443.59;;;9.64;70.61
84445;BME280;74683;48.402;10.596;2023-12-29T12:58:41;96445.88;;;9.62;71.56
84445;BME280;74683;48.402;10.596;2023-12-29T13:01:08;96439.22;;;9.63;71.50
84445;BME280;74683;48.402;10.596;2023-12-29T13:03:38;96437.41;;;9.67;71.28
84445;BME280;74683;48.402;10.596;2023-12-29T13:06:05;96445.19;;;9.65;70.70
84445;BME280;74683;48.402;10.596;2023-12-29T13:08:33;96439.22;;;9.63;70.74
84445;BME280;74683;48.402;10.596;2023-12-29T13:11:08;96444.28;;;9.61;71.33
84445;BME280;74683;48.402;10.596;2023-12-29T13:13:39;96442.69;;;9.60;71.30